Terminal Aerodrome Forecast
Issued by NWS

Home | Current Version | Previous Version | Text Only | Print | Product List | Glossary On
Versions: 1 2 3 4 5 6 7 8 9 10 11 12 13 14 15 16 17 18 19
273
FTUS43 KDLH 141132
TAFBRD
TAF
KBRD 141132Z 1412/1512 VRB03KT P6SM SCT200
     FM141900 07008KT P6SM VCSH BKN110
     FM142200 03008KT P6SM -RA OVC070
     FM150200 01009KT P6SM -RA OVC030
     FM150600 34010KT P6SM OVC020
     FM151000 33007KT P6SM BKN050=

USA.gov is the U.S. government's official web portal to all federal, state and local government web resources and services.